sensor_id;sensor_type;location;lat;lon;timestamp;pressure;altitude;pressure_sealevel;temperature;humidity
59971;BME280;45825;45.434;9.116;2023-04-20T00:00:25;99868.44;;;15.34;72.24
59971;BME280;45825;45.434;9.116;2023-04-20T00:02:50;99874.31;;;15.38;71.90
59971;BME280;45825;45.434;9.116;2023-04-20T00:05:17;99870.25;;;15.34;72.25
59971;BME280;45825;45.434;9.116;2023-04-20T00:07:42;99872.53;;;15.39;72.75
59971;BME280;45825;45.434;9.116;2023-04-20T00:10:08;99869.75;;;15.40;72.51
59971;BME280;45825;45.434;9.116;2023-04-20T00:12:33;99875.44;;;15.35;73.55
59971;BME280;45825;45.434;9.116;2023-04-20T00:14:58;99870.72;;;15.39;73.77
59971;BME280;45825;45.434;9.116;2023-04-20T00:17:24;99860.50;;;15.34;73.75
59971;BME280;45825;45.434;9.116;2023-04-20T00:19:49;99865.78;;;15.34;74.84
59971;BME280;45825;45.434;9.116;2023-04-20T00:22:14;99865.31;;;15.29;75.32
59971;BME280;45825;45.434;9.116;2023-04-20T00:24:40;99862.78;;;15.28;75.83
59971;BME280;45825;45.434;9.116;2023-04-20T00:27:05;99862.56;;;15.31;75.79
59971;BME280;45825;45.434;9.116;2023-04-20T00:29:30;99851.84;;;15.21;76.25
59971;BME280;45825;45.434;9.116;2023-04-20T00:31:56;99851.66;;;15.13;77.31
59971;BME280;45825;45.434;9.116;2023-04-20T00:34:21;99844.06;;;15.08;77.42
59971;BME280;45825;45.434;9.116;2023-04-20T00:36:46;99831.91;;;15.05;77.66
59971;BME280;45825;45.434;9.116;2023-04-20T00:39:13;99830.00;;;14.96;79.56
59971;BME280;45825;45.434;9.116;2023-04-20T00:41:38;99827.25;;;14.86;80.07
59971;BME280;45825;45.434;9.116;2023-04-20T00:44:05;99824.50;;;14.76;81.34
59971;BME280;45825;45.434;9.116;2023-04-20T00:46:32;99818.59;;;14.73;81.46
59971;BME280;45825;45.434;9.116;2023-04-20T00:48:57;99814.75;;;14.65;82.38
59971;BME280;45825;45.434;9.116;2023-04-20T00:51:23;99819.69;;;14.70;81.89
59971;BME280;45825;45.434;9.116;2023-04-20T00:53:49;99818.38;;;14.76;80.83
59971;BME280;45825;45.434;9.116;2023-04-20T00:56:14;99815.59;;;14.77;80.73
59971;BME280;45825;45.434;9.116;2023-04-20T00:58:43;99817.41;;;14.77;80.66
59971;BME280;45825;45.434;9.116;2023-04-20T01:01:12;99819.53;;;14.72;80.64
59971;BME280;45825;45.434;9.116;2023-04-20T01:03:41;99824.50;;;14.76;79.67
59971;BME280;45825;45.434;9.116;2023-04-20T01:06:07;99833.66;;;14.72;79.70
59971;BME280;45825;45.434;9.116;2023-04-20T01:08:33;99832.16;;;14.68;79.64
59971;BME280;45825;45.434;9.116;2023-04-20T01:10:58;99830.50;;;14.56;81.02
59971;BME280;45825;45.434;9.116;2023-04-20T01:13:23;99832.31;;;14.55;80.80
59971;BME280;45825;45.434;9.116;2023-04-20T01:15:49;99834.25;;;14.53;80.91
59971;BME280;45825;45.434;9.116;2023-04-20T01:18:15;99838.09;;;14.60;81.53
59971;BME280;45825;45.434;9.116;2023-04-20T01:20:43;99834.84;;;14.57;81.77
59971;BME280;45825;45.434;9.116;2023-04-20T01:23:09;99835.34;;;14.50;81.14
59971;BME280;45825;45.434;9.116;2023-04-20T01:25:34;99843.88;;;14.43;81.86
59971;BME280;45825;45.434;9.116;2023-04-20T01:28:00;99834.00;;;14.45;80.96
59971;BME280;45825;45.434;9.116;2023-04-20T01:30:26;99834.47;;;14.61;80.14
59971;BME280;45825;45.434;9.116;2023-04-20T01:32:51;99826.91;;;14.45;81.66
59971;BME280;45825;45.434;9.116;2023-04-20T01:35:17;99832.09;;;14.35;81.17
59971;BME280;45825;45.434;9.116;2023-04-20T01:37:42;99827.03;;;14.21;81.19
59971;BME280;45825;45.434;9.116;2023-04-20T01:40:08;99828.38;;;14.27;81.29
59971;BME280;45825;45.434;9.116;2023-04-20T01:42:34;99820.06;;;14.20;82.22
59971;BME280;45825;45.434;9.116;2023-04-20T01:44:59;99820.41;;;14.15;81.99
59971;BME280;45825;45.434;9.116;2023-04-20T01:47:25;99821.97;;;14.18;82.51
59971;BME280;45825;45.434;9.116;2023-04-20T01:49:50;99827.16;;;14.19;82.48
59971;BME280;45825;45.434;9.116;2023-04-20T01:52:15;99824.72;;;14.05;84.29
59971;BME280;45825;45.434;9.116;2023-04-20T01:54:41;99819.78;;;13.89;86.63
59971;BME280;45825;45.434;9.116;2023-04-20T01:57:06;99821.13;;;13.94;86.82
59971;BME280;45825;45.434;9.116;2023-04-20T01:59:31;99815.06;;;13.81;88.91
59971;BME280;45825;45.434;9.116;2023-04-20T02:01:56;99804.25;;;13.84;89.24
59971;BME280;45825;45.434;9.116;2023-04-20T02:04:23;99815.06;;;13.92;88.91
59971;BME280;45825;45.434;9.116;2023-04-20T02:06:48;99812.53;;;13.79;91.57
59971;BME280;45825;45.434;9.116;2023-04-20T02:09:13;99821.47;;;13.90;90.53
59971;BME280;45825;45.434;9.116;2023-04-20T02:11:39;99816.53;;;13.85;90.85
59971;BME280;45825;45.434;9.116;2023-04-20T02:14:05;99816.16;;;13.90;89.93
59971;BME280;45825;45.434;9.116;2023-04-20T02:16:30;99817.50;;;13.84;90.49
59971;BME280;45825;45.434;9.116;2023-04-20T02:18:56;99812.53;;;13.79;92.28
59971;BME280;45825;45.434;9.116;2023-04-20T02:21:21;99818.94;;;13.88;91.25
59971;BME280;45825;45.434;9.116;2023-04-20T02:23:47;99812.19;;;13.84;91.41
59971;BME280;45825;45.434;9.116;2023-04-20T02:26:12;99816.63;;;13.83;92.07
59971;BME280;45825;45.434;9.116;2023-04-20T02:28:37;99811.34;;;13.83;91.94
59971;BME280;45825;45.434;9.116;2023-04-20T02:31:03;99799.06;;;13.71;93.61
59971;BME280;45825;45.434;9.116;2023-04-20T02:33:28;99810.50;;;13.72;94.11
59971;BME280;45825;45.434;9.116;2023-04-20T02:35:53;99799.16;;;13.69;94.92
59971;BME280;45825;45.434;9.116;2023-04-20T02:38:19;99800.03;;;13.70;94.45
59971;BME280;45825;45.434;9.116;2023-04-20T02:40:44;99805.66;;;13.65;96.70
59971;BME280;45825;45.434;9.116;2023-04-20T02:43:09;99790.16;;;13.61;97.35
59971;BME280;45825;45.434;9.116;2023-04-20T02:45:35;99798.59;;;13.77;96.36
59971;BME280;45825;45.434;9.116;2023-04-20T02:48:01;99796.66;;;13.68;97.37
59971;BME280;45825;45.434;9.116;2023-04-20T02:50:26;99789.56;;;13.68;98.48
59971;BME280;45825;45.434;9.116;2023-04-20T02:52:51;99796.53;;;13.69;98.94
59971;BME280;45825;45.434;9.116;2023-04-20T02:55:16;99788.50;;;13.71;98.74
59971;BME280;45825;45.434;9.116;2023-04-20T02:57:42;99789.09;;;13.75;99.32
59971;BME280;45825;45.434;9.116;2023-04-20T03:00:07;99791.59;;;13.76;99.55
59971;BME280;45825;45.434;9.116;2023-04-20T03:02:33;99786.09;;;13.68;100.00
59971;BME280;45825;45.434;9.116;2023-04-20T03:04:59;99800.59;;;13.62;100.00
59971;BME280;45825;45.434;9.116;2023-04-20T03:07:24;99795.09;;;13.65;100.00
59971;BME280;45825;45.434;9.116;2023-04-20T03:09:50;99800.25;;;13.67;100.00
59971;BME280;45825;45.434;9.116;2023-04-20T03:12:15;99800.28;;;13.78;100.00
59971;BME280;45825;45.434;9.116;2023-04-20T03:14:42;99809.69;;;13.94;100.00
59971;BME280;45825;45.434;9.116;2023-04-20T03:17:07;99805.09;;;13.96;100.00
59971;BME280;45825;45.434;9.116;2023-04-20T03:19:32;99797.78;;;14.00;100.00
59971;BME280;45825;45.434;9.116;2023-04-20T03:21:58;99806.22;;;13.93;100.00
59971;BME280;45825;45.434;9.116;2023-04-20T03:24:23;99793.34;;;13.89;100.00
59971;BME280;45825;45.434;9.116;2023-04-20T03:26:48;99800.44;;;14.00;100.00
59971;BME280;45825;45.434;9.116;2023-04-20T03:29:14;99792.13;;;13.93;100.00
59971;BME280;45825;45.434;9.116;2023-04-20T03:31:39;99795.28;;;13.98;100.00
59971;BME280;45825;45.434;9.116;2023-04-20T03:34:05;99785.88;;;13.94;100.00
59971;BME280;45825;45.434;9.116;2023-04-20T03:36:30;99794.66;;;13.94;100.00
59971;BME280;45825;45.434;9.116;2023-04-20T03:38:56;99792.13;;;13.93;100.00
59971;BME280;45825;45.434;9.116;2023-04-20T03:41:21;99796.09;;;13.87;100.00
59971;BME280;45825;45.434;9.116;2023-04-20T03:43:47;99794.16;;;14.01;100.00
59971;BME280;45825;45.434;9.116;2023-04-20T03:46:12;99791.88;;;13.96;100.00
59971;BME280;45825;45.434;9.116;2023-04-20T03:48:39;99798.13;;;13.83;100.00
59971;BME280;45825;45.434;9.116;2023-04-20T03:51:04;99805.09;;;13.85;100.00
59971;BME280;45825;45.434;9.116;2023-04-20T03:53:30;99796.19;;;13.86;100.00
59971;BME280;45825;45.434;9.116;2023-04-20T03:55:55;99796.44;;;13.94;100.00
59971;BME280;45825;45.434;9.116;2023-04-20T03:58:20;99795.63;;;13.82;100.00
59971;BME280;45825;45.434;9.116;2023-04-20T04:00:46;99795.84;;;13.90;100.00
59971;BME280;45825;45.434;9.116;2023-04-20T04:03:11;99799.81;;;13.85;100.00
59971;BME280;45825;45.434;9.116;2023-04-20T04:05:36;99797.75;;;13.77;100.00
59971;BME280;45825;45.434;9.116;2023-04-20T04:08:02;99799.41;;;13.66;100.00
59971;BME280;45825;45.434;9.116;2023-04-20T04:10:27;99802.97;;;13.54;100.00
59971;BME280;45825;45.434;9.116;2023-04-20T04:12:52;99797.59;;;13.55;100.00
59971;BME280;45825;45.434;9.116;2023-04-20T04:15:18;99795.78;;;13.56;100.00
59971;BME280;45825;45.434;9.116;2023-04-20T04:17:43;99804.09;;;13.63;100.00
59971;BME280;45825;45.434;9.116;2023-04-20T04:20:10;99805.56;;;13.67;100.00
59971;BME280;45825;45.434;9.116;2023-04-20T04:22:36;99805.78;;;13.75;100.00
59971;BME280;45825;45.434;9.116;2023-04-20T04:25:03;99802.06;;;13.66;100.00
59971;BME280;45825;45.434;9.116;2023-04-20T04:27:29;99800.97;;;13.69;100.00
59971;BME280;45825;45.434;9.116;2023-04-20T04:29:59;99799.41;;;13.66;100.00
59971;BME280;45825;45.434;9.116;2023-04-20T04:32:25;99796.28;;;13.61;100.00
59971;BME280;45825;45.434;9.116;2023-04-20T04:34:50;99788.56;;;13.58;100.00
59971;BME280;45825;45.434;9.116;2023-04-20T04:37:17;99788.47;;;13.60;100.00
59971;BME280;45825;45.434;9.116;2023-04-20T04:39:42;99792.06;;;13.59;100.00
59971;BME280;45825;45.434;9.116;2023-04-20T04:42:07;99785.25;;;13.43;100.00
59971;BME280;45825;45.434;9.116;2023-04-20T04:44:33;99792.88;;;13.48;100.00
59971;BME280;45825;45.434;9.116;2023-04-20T04:47:01;99804.06;;;13.51;100.00
59971;BME280;45825;45.434;9.116;2023-04-20T04:49:26;99796.25;;;13.50;100.00
59971;BME280;45825;45.434;9.116;2023-04-20T04:51:53;99798.91;;;13.50;100.00
59971;BME280;45825;45.434;9.116;2023-04-20T04:54:18;99794.44;;;13.50;100.00
59971;BME280;45825;45.434;9.116;2023-04-20T04:56:44;99795.44;;;13.61;100.00
59971;BME280;45825;45.434;9.116;2023-04-20T04:59:09;99799.31;;;13.68;100.00
59971;BME280;45825;45.434;9.116;2023-04-20T05:01:34;99791.13;;;13.71;100.00
59971;BME280;45825;45.434;9.116;2023-04-20T05:04:00;99791.75;;;13.75;100.00
59971;BME280;45825;45.434;9.116;2023-04-20T05:06:25;99793.75;;;13.60;100.00
59971;BME280;45825;45.434;9.116;2023-04-20T05:08:51;99788.72;;;13.68;100.00
59971;BME280;45825;45.434;9.116;2023-04-20T05:11:16;99790.06;;;13.74;100.00
59971;BME280;45825;45.434;9.116;2023-04-20T05:13:42;99790.69;;;13.77;100.00
59971;BME280;45825;45.434;9.116;2023-04-20T05:16:07;99787.78;;;13.80;100.00
59971;BME280;45825;45.434;9.116;2023-04-20T05:18:32;99783.72;;;13.88;100.00
59971;BME280;45825;45.434;9.116;2023-04-20T05:20:58;99794.31;;;13.88;100.00
59971;BME280;45825;45.434;9.116;2023-04-20T05:23:23;99787.91;;;13.90;100.00
59971;BME280;45825;45.434;9.116;2023-04-20T05:25:48;99789.59;;;13.91;100.00
59971;BME280;45825;45.434;9.116;2023-04-20T05:28:14;99798.38;;;13.92;100.00
59971;BME280;45825;45.434;9.116;2023-04-20T05:30:39;99786.94;;;13.91;100.00
59971;BME280;45825;45.434;9.116;2023-04-20T05:33:04;99789.00;;;13.88;100.00
59971;BME280;45825;45.434;9.116;2023-04-20T05:35:30;99795.03;;;13.90;100.00
59971;BME280;45825;45.434;9.116;2023-04-20T05:37:55;99797.78;;;14.00;100.00
59971;BME280;45825;45.434;9.116;2023-04-20T05:40:24;99803.22;;;13.98;100.00
59971;BME280;45825;45.434;9.116;2023-04-20T05:42:49;99787.44;;;13.96;100.00
59971;BME280;45825;45.434;9.116;2023-04-20T05:45:15;99794.41;;;13.86;100.00
59971;BME280;45825;45.434;9.116;2023-04-20T05:47:40;99786.84;;;13.93;100.00
59971;BME280;45825;45.434;9.116;2023-04-20T05:50:08;99788.97;;;13.76;100.00
59971;BME280;45825;45.434;9.116;2023-04-20T05:52:34;99795.72;;;13.80;100.00
59971;BME280;45825;45.434;9.116;2023-04-20T05:54:59;99792.00;;;13.83;100.00
59971;BME280;45825;45.434;9.116;2023-04-20T05:57:24;99796.66;;;13.68;100.00
59971;BME280;45825;45.434;9.116;2023-04-20T05:59:50;99798.41;;;13.56;100.00
59971;BME280;45825;45.434;9.116;2023-04-20T06:02:15;99797.81;;;13.52;100.00
59971;BME280;45825;45.434;9.116;2023-04-20T06:04:40;99794.44;;;13.50;100.00
59971;BME280;45825;45.434;9.116;2023-04-20T06:07:06;99797.84;;;13.64;100.00
59971;BME280;45825;45.434;9.116;2023-04-20T06:09:31;99799.50;;;13.65;100.00
59971;BME280;45825;45.434;9.116;2023-04-20T06:11:57;99797.25;;;13.60;100.00
59971;BME280;45825;45.434;9.116;2023-04-20T06:14:22;99793.06;;;13.69;100.00
59971;BME280;45825;45.434;9.116;2023-04-20T06:16:47;99794.63;;;13.72;100.00
59971;BME280;45825;45.434;9.116;2023-04-20T06:19:13;99799.75;;;13.62;100.00
59971;BME280;45825;45.434;9.116;2023-04-20T06:21:39;99802.75;;;13.57;100.00
59971;BME280;45825;45.434;9.116;2023-04-20T06:24:05;99798.19;;;13.59;100.00
59971;BME280;45825;45.434;9.116;2023-04-20T06:26:31;99806.34;;;13.56;100.00
59971;BME280;45825;45.434;9.116;2023-04-20T06:28:56;99804.81;;;13.65;100.00
59971;BME280;45825;45.434;9.116;2023-04-20T06:31:21;99813.84;;;13.62;100.00
59971;BME280;45825;45.434;9.116;2023-04-20T06:33:46;99822.72;;;13.61;100.00
59971;BME280;45825;45.434;9.116;2023-04-20T06:36:12;99824.84;;;13.56;100.00
59971;BME280;45825;45.434;9.116;2023-04-20T06:38:39;99831.81;;;13.57;100.00
59971;BME280;45825;45.434;9.116;2023-04-20T06:41:04;99833.19;;;13.74;100.00
59971;BME280;45825;45.434;9.116;2023-04-20T06:43:30;99833.19;;;13.74;100.00
59971;BME280;45825;45.434;9.116;2023-04-20T06:45:55;99825.59;;;13.69;100.00
59971;BME280;45825;45.434;9.116;2023-04-20T06:48:21;99827.28;;;13.71;100.00
59971;BME280;45825;45.434;9.116;2023-04-20T06:50:47;99824.78;;;13.69;100.00
59971;BME280;45825;45.434;9.116;2023-04-20T06:53:14;99830.88;;;13.69;100.00
59971;BME280;45825;45.434;9.116;2023-04-20T06:55:39;99840.28;;;13.74;100.00
59971;BME280;45825;45.434;9.116;2023-04-20T06:58:04;99843.38;;;13.67;100.00
59971;BME280;45825;45.434;9.116;2023-04-20T07:00:30;99841.00;;;13.64;100.00
59971;BME280;45825;45.434;9.116;2023-04-20T07:02:55;99839.25;;;13.52;100.00
59971;BME280;45825;45.434;9.116;2023-04-20T07:05:21;99843.53;;;13.41;100.00
59971;BME280;45825;45.434;9.116;2023-04-20T07:07:46;99836.66;;;13.39;100.00
59971;BME280;45825;45.434;9.116;2023-04-20T07:10:13;99846.88;;;13.44;100.00
59971;BME280;45825;45.434;9.116;2023-04-20T07:12:39;99846.44;;;13.25;100.00
59971;BME280;45825;45.434;9.116;2023-04-20T07:15:06;99847.63;;;12.97;100.00
59971;BME280;45825;45.434;9.116;2023-04-20T07:17:32;99853.78;;;12.84;100.00
59971;BME280;45825;45.434;9.116;2023-04-20T07:19:58;99851.28;;;12.57;100.00
59971;BME280;45825;45.434;9.116;2023-04-20T07:22:30;99853.41;;;12.65;100.00
59971;BME280;45825;45.434;9.116;2023-04-20T07:24:55;99857.31;;;12.59;100.00
59971;BME280;45825;45.434;9.116;2023-04-20T07:27:21;99855.19;;;12.51;100.00
59971;BME280;45825;45.434;9.116;2023-04-20T07:29:46;99847.63;;;12.34;100.00
59971;BME280;45825;45.434;9.116;2023-04-20T07:32:11;99847.81;;;12.43;100.00
59971;BME280;45825;45.434;9.116;2023-04-20T07:34:37;99849.63;;;12.43;100.00
59971;BME280;45825;45.434;9.116;2023-04-20T07:37:02;99839.91;;;12.56;100.00
59971;BME280;45825;45.434;9.116;2023-04-20T07:39:27;99843.81;;;12.51;100.00
59971;BME280;45825;45.434;9.116;2023-04-20T07:41:54;99837.06;;;12.47;100.00
59971;BME280;45825;45.434;9.116;2023-04-20T07:44:21;99844.78;;;12.37;100.00
59971;BME280;45825;45.434;9.116;2023-04-20T07:46:46;99839.19;;;12.41;100.00
59971;BME280;45825;45.434;9.116;2023-04-20T07:49:13;99855.22;;;12.25;100.00
59971;BME280;45825;45.434;9.116;2023-04-20T07:51:38;99860.19;;;12.17;100.00
59971;BME280;45825;45.434;9.116;2023-04-20T07:54:04;99851.84;;;12.10;100.00
59971;BME280;45825;45.434;9.116;2023-04-20T07:56:29;99843.72;;;12.13;100.00
59971;BME280;45825;45.434;9.116;2023-04-20T07:58:54;99842.13;;;12.24;100.00
59971;BME280;45825;45.434;9.116;2023-04-20T08:01:23;99854.41;;;12.25;100.00
59971;BME280;45825;45.434;9.116;2023-04-20T08:03:51;99856.59;;;12.18;100.00
59971;BME280;45825;45.434;9.116;2023-04-20T08:06:19;99854.81;;;12.19;100.00
59971;BME280;45825;45.434;9.116;2023-04-20T08:08:44;99855.00;;;12.28;100.00
59971;BME280;45825;45.434;9.116;2023-04-20T08:11:09;99852.81;;;12.09;100.00
59971;BME280;45825;45.434;9.116;2023-04-20T08:13:36;99855.63;;;12.19;100.00
59971;BME280;45825;45.434;9.116;2023-04-20T08:16:01;99852.16;;;12.19;100.00
59971;BME280;45825;45.434;9.116;2023-04-20T08:18:27;99843.84;;;12.25;100.00
59971;BME280;45825;45.434;9.116;2023-04-20T08:20:54;99853.44;;;12.13;100.00
59971;BME280;45825;45.434;9.116;2023-04-20T08:23:19;99863.13;;;12.12;100.00
59971;BME280;45825;45.434;9.116;2023-04-20T08:25:45;99864.72;;;12.15;100.00
59971;BME280;45825;45.434;9.116;2023-04-20T08:28:10;99871.47;;;12.19;100.00
59971;BME280;45825;45.434;9.116;2023-04-20T08:30:37;99870.22;;;12.12;100.00
59971;BME280;45825;45.434;9.116;2023-04-20T08:33:04;99870.00;;;12.15;100.00
59971;BME280;45825;45.434;9.116;2023-04-20T08:35:29;99871.16;;;12.11;100.00
59971;BME280;45825;45.434;9.116;2023-04-20T08:37:55;99873.28;;;12.19;100.00
59971;BME280;45825;45.434;9.116;2023-04-20T08:40:20;99871.84;;;12.00;100.00
59971;BME280;45825;45.434;9.116;2023-04-20T08:42:45;99877.25;;;12.11;100.00
59971;BME280;45825;45.434;9.116;2023-04-20T08:45:11;99876.44;;;12.11;100.00
59971;BME280;45825;45.434;9.116;2023-04-20T08:47:37;99868.94;;;12.18;100.00
59971;BME280;45825;45.434;9.116;2023-04-20T08:50:03;99862.72;;;12.19;100.00
59971;BME280;45825;45.434;9.116;2023-04-20T08:52:29;99870.00;;;12.41;100.00
59971;BME280;45825;45.434;9.116;2023-04-20T08:54:55;99862.59;;;12.46;100.00
59971;BME280;45825;45.434;9.116;2023-04-20T08:57:20;99859.34;;;12.42;100.00
59971;BME280;45825;45.434;9.116;2023-04-20T08:59:45;99864.59;;;12.42;100.00
59971;BME280;45825;45.434;9.116;2023-04-20T09:02:12;99864.09;;;12.24;100.00
59971;BME280;45825;45.434;9.116;2023-04-20T09:04:40;99868.50;;;12.24;100.00
59971;BME280;45825;45.434;9.116;2023-04-20T09:07:14;99868.94;;;12.18;100.00
59971;BME280;45825;45.434;9.116;2023-04-20T09:09:40;99865.25;;;12.33;100.00
59971;BME280;45825;45.434;9.116;2023-04-20T09:12:17;99864.94;;;12.38;100.00
59971;BME280;45825;45.434;9.116;2023-04-20T09:14:43;99859.56;;;12.39;100.00
59971;BME280;45825;45.434;9.116;2023-04-20T09:17:09;99868.09;;;12.30;100.00
59971;BME280;45825;45.434;9.116;2023-04-20T09:19:38;99874.56;;;12.26;100.00
59971;BME280;45825;45.434;9.116;2023-04-20T09:22:04;99879.06;;;12.37;100.00
59971;BME280;45825;45.434;9.116;2023-04-20T09:24:34;99871.16;;;12.37;100.00
59971;BME280;45825;45.434;9.116;2023-04-20T09:27:01;99878.13;;;12.51;100.00
59971;BME280;45825;45.434;9.116;2023-04-20T09:29:27;99871.69;;;12.42;100.00
59971;BME280;45825;45.434;9.116;2023-04-20T09:31:54;99870.53;;;12.20;100.00
59971;BME280;45825;45.434;9.116;2023-04-20T09:34:43;99871.06;;;12.38;100.00
59971;BME280;45825;45.434;9.116;2023-04-20T09:37:09;99881.25;;;12.56;100.00
59971;BME280;45825;45.434;9.116;2023-04-20T09:39:36;99881.81;;;12.48;100.00
59971;BME280;45825;45.434;9.116;2023-04-20T09:42:05;99883.50;;;12.62;100.00
59971;BME280;45825;45.434;9.116;2023-04-20T09:44:31;99883.06;;;12.29;100.00
59971;BME280;45825;45.434;9.116;2023-04-20T09:46:57;99878.84;;;12.53;100.00
59971;BME280;45825;45.434;9.116;2023-04-20T09:49:22;99875.66;;;12.74;100.00
59971;BME280;45825;45.434;9.116;2023-04-20T09:51:48;99869.28;;;12.89;100.00
59971;BME280;45825;45.434;9.116;2023-04-20T09:54:13;99877.25;;;12.76;100.00
59971;BME280;45825;45.434;9.116;2023-04-20T09:56:40;99876.22;;;12.53;100.00
59971;BME280;45825;45.434;9.116;2023-04-20T09:59:05;99873.47;;;12.41;100.00
59971;BME280;45825;45.434;9.116;2023-04-20T10:01:32;99875.78;;;12.33;100.00
59971;BME280;45825;45.434;9.116;2023-04-20T10:04:01;99883.06;;;12.42;100.00
59971;BME280;45825;45.434;9.116;2023-04-20T10:06:32;99878.75;;;12.54;100.00
59971;BME280;45825;45.434;9.116;2023-04-20T10:09:00;99866.69;;;12.63;100.00
59971;BME280;45825;45.434;9.116;2023-04-20T10:11:27;99873.72;;;12.89;100.00
59971;BME280;45825;45.434;9.116;2023-04-20T10:13:52;99871.41;;;12.84;100.00
59971;BME280;45825;45.434;9.116;2023-04-20T10:16:19;99868.28;;;12.66;100.00
59971;BME280;45825;45.434;9.116;2023-04-20T10:18:58;99873.72;;;12.89;100.00
59971;BME280;45825;45.434;9.116;2023-04-20T10:21:25;99875.31;;;12.91;100.00
59971;BME280;45825;45.434;9.116;2023-04-20T10:23:51;99865.91;;;13.24;100.00
59971;BME280;45825;45.434;9.116;2023-04-20T10:26:16;99849.38;;;13.34;100.00
59971;BME280;45825;45.434;9.116;2023-04-20T10:28:43;99851.34;;;13.19;100.00
59971;BME280;45825;45.434;9.116;2023-04-20T10:31:09;99847.31;;;13.37;100.00
59971;BME280;45825;45.434;9.116;2023-04-20T10:33:53;99835.50;;;13.19;100.00
59971;BME280;45825;45.434;9.116;2023-04-20T10:36:27;99851.34;;;13.19;100.00
59971;BME280;45825;45.434;9.116;2023-04-20T10:38:53;99834.91;;;13.02;100.00
59971;BME280;45825;45.434;9.116;2023-04-20T10:41:19;99830.31;;;13.41;100.00
59971;BME280;45825;45.434;9.116;2023-04-20T10:43:45;99827.47;;;13.32;100.00
59971;BME280;45825;45.434;9.116;2023-04-20T10:46:21;99829.06;;;13.34;100.00
59971;BME280;45825;45.434;9.116;2023-04-20T10:48:57;99827.66;;;13.17;100.00
59971;BME280;45825;45.434;9.116;2023-04-20T10:51:24;99817.78;;;13.08;100.00
59971;BME280;45825;45.434;9.116;2023-04-20T10:54:03;99811.91;;;13.16;100.00
59971;BME280;45825;45.434;9.116;2023-04-20T10:56:40;99808.94;;;13.20;100.00
59971;BME280;45825;45.434;9.116;2023-04-20T10:59:10;99807.84;;;13.11;100.00
59971;BME280;45825;45.434;9.116;2023-04-20T11:01:36;99814.56;;;13.16;100.00
59971;BME280;45825;45.434;9.116;2023-04-20T11:04:02;99805.56;;;13.18;100.00
59971;BME280;45825;45.434;9.116;2023-04-20T11:06:29;99808.16;;;13.07;100.00
59971;BME280;45825;45.434;9.116;2023-04-20T11:08:55;99805.03;;;13.02;100.00
59971;BME280;45825;45.434;9.116;2023-04-20T11:11:24;99796.50;;;12.98;100.00
59971;BME280;45825;45.434;9.116;2023-04-20T11:13:52;99782.09;;;13.02;100.00
59971;BME280;45825;45.434;9.116;2023-04-20T11:16:28;99779.72;;;13.10;100.00
59971;BME280;45825;45.434;9.116;2023-04-20T11:18:54;99789.00;;;13.16;100.00
59971;BME280;45825;45.434;9.116;2023-04-20T11:21:22;99793.38;;;13.04;100.00
59971;BME280;45825;45.434;9.116;2023-04-20T11:23:48;99794.31;;;13.27;100.00
59971;BME280;45825;45.434;9.116;2023-04-20T11:26:14;99779.81;;;13.33;100.00
59971;BME280;45825;45.434;9.116;2023-04-20T11:28:50;99774.50;;;13.46;100.00
59971;BME280;45825;45.434;9.116;2023-04-20T11:31:16;99780.25;;;13.51;100.00
59971;BME280;45825;45.434;9.116;2023-04-20T11:33:45;99778.09;;;13.21;100.00
59971;BME280;45825;45.434;9.116;2023-04-20T11:36:18;99790.19;;;13.12;100.00
59971;BME280;45825;45.434;9.116;2023-04-20T11:38:44;99786.34;;;13.16;100.00
59971;BME280;45825;45.434;9.116;2023-04-20T11:41:10;99788.91;;;13.18;100.00
59971;BME280;45825;45.434;9.116;2023-04-20T11:43:35;99783.28;;;13.22;100.00
59971;BME280;45825;45.434;9.116;2023-04-20T11:46:00;99778.81;;;13.23;100.00
59971;BME280;45825;45.434;9.116;2023-04-20T11:48:29;99787.13;;;13.30;100.00
59971;BME280;45825;45.434;9.116;2023-04-20T11:50:56;99775.72;;;13.29;100.00
59971;BME280;45825;45.434;9.116;2023-04-20T11:53:21;99777.13;;;13.46;100.00
59971;BME280;45825;45.434;9.116;2023-04-20T11:55:46;99778.69;;;13.49;100.00
59971;BME280;45825;45.434;9.116;2023-04-20T11:58:11;99773.53;;;13.47;100.00
59971;BME280;45825;45.434;9.116;2023-04-20T12:00:41;99780.59;;;13.47;100.00
59971;BME280;45825;45.434;9.116;2023-04-20T12:03:06;99774.34;;;13.48;100.00
59971;BME280;45825;45.434;9.116;2023-04-20T12:05:32;99767.94;;;13.39;100.00
59971;BME280;45825;45.434;9.116;2023-04-20T12:07:57;99774.81;;;13.41;100.00
59971;BME280;45825;45.434;9.116;2023-04-20T12:10:23;99768.72;;;13.52;100.00
59971;BME280;45825;45.434;9.116;2023-04-20T12:12:48;99772.72;;;13.58;100.00
59971;BME280;45825;45.434;9.116;2023-04-20T12:15:13;99773.06;;;13.53;100.00
59971;BME280;45825;45.434;9.116;2023-04-20T12:17:38;99771.31;;;13.41;100.00
59971;BME280;45825;45.434;9.116;2023-04-20T12:20:04;99777.28;;;13.56;100.00
59971;BME280;45825;45.434;9.116;2023-04-20T12:22:33;99776.94;;;13.61;100.00
59971;BME280;45825;45.434;9.116;2023-04-20T12:24:59;99771.75;;;13.71;100.00
59971;BME280;45825;45.434;9.116;2023-04-20T12:27:24;99770.56;;;13.63;100.00
59971;BME280;45825;45.434;9.116;2023-04-20T12:29:50;99771.53;;;13.62;100.00
59971;BME280;45825;45.434;9.116;2023-04-20T12:32:15;99769.44;;;13.54;100.00
59971;BME280;45825;45.434;9.116;2023-04-20T12:34:41;99772.34;;;13.51;100.00
59971;BME280;45825;45.434;9.116;2023-04-20T12:37:06;99771.84;;;13.46;100.00
59971;BME280;45825;45.434;9.116;2023-04-20T12:39:31;99765.66;;;13.34;100.00
59971;BME280;45825;45.434;9.116;2023-04-20T12:41:56;99767.84;;;13.40;100.00
59971;BME280;45825;45.434;9.116;2023-04-20T12:44:22;99762.91;;;13.36;100.00
59971;BME280;45825;45.434;9.116;2023-04-20T12:46:47;99753.47;;;13.20;100.00